AirNav   Air Wisconsin Up To $57,000 Bonus
 
 891 users online  

MA71 Davna Corp Heliport
Millis, Massachusetts, USA

GOING TO MILLIS?


FAA INFORMATION EFFECTIVE 26 MARCH 2020

Location

FAA Identifier: MA71
Lat/Long: 42-09-18.3500N 071-23-10.2110W
42-09.305833N 071-23.170183W
42.1550972,-71.3861697
(estimated)
Elevation: 145 ft. / 44 m (estimated)
Variation: 15W (1985)
From city: 1 mile W of MILLIS, MA
Time zone: UTC -4 (UTC -5 during Standard Time)
Zip code: 02054

Heliport Operations

Heliport use: Private use. Permission required prior to landing
Activation date: 10/1989
Control tower: no
ARTCC: BOSTON CENTER
FSS: BRIDGEPORT FLIGHT SERVICE STATION
Attendance: UNATNDD
Wind indicator: yes
Segmented circle: no

Heliport Communications

WX ASOS at OWD (10 nm E): 119.95 (781-762-4314)
WX AWOS-3PT at SFZ (15 nm S): 120.775 (401-334-0324)
WX ASOS at BED (19 nm N): 124.6 (781-274-9733)

Nearby radio navigation aids

VOR radial/distance  VOR name  Freq  Var
BOSr251/21.4BOSTON VOR/DME112.7016W
PUTr074/23.7PUTNAM VOR/DME117.4014W
PVDr018/25.9PROVIDENCE VOR/DME115.6014W
LWMr215/37.4LAWRENCE VOR/DME112.5015W
GDMr142/37.9GARDNER VOR/DME110.6014W

 
NDB name  Hdg/Dist  Freq  Var  ID
STOGE295/11.739715WOW --- .--
MARSHFIELD292/31.836816WIMR .. -- .-.

Heliport Services

Runway Information

Helipad H1

Dimensions: 100 x 100 ft. / 30 x 30 m
Surface: turf
Operational restrictions: NO OPERATIONS SOUTH OF ROUTE 109.
Traffic pattern: leftleft

Heliport Ownership and Management from official FAA records

Ownership: Privately-owned
Owner: DAVNA CORPORATION
1575 MAIN ST
MILLIS, MA 02054
Manager: JOEL ROSENFELD
1575 MAIN ST
MILLIS, MA 02054
Phone 508-376-8300

Additional Remarks

FOR CD CTC BOSTON APCH AT 603-594-5551.

Instrument Procedures

There are no published instrument procedures at MA71.

Some nearby airports with instrument procedures:

1B6 - Hopedale Industrial Park Airport (6 nm SW)
KOWD - Norwood Memorial Airport (10 nm E)
1B9 - Mansfield Municipal Airport (12 nm SE)
KSFZ - North Central State Airport (15 nm S)
6B6 - Minute Man Air Field (19 nm N)
KBED - Laurence G Hanscom Field Airport (19 nm N)
 
Loc | Ops | Rwys | IFR | FBO | Links
Com | Nav | Svcs | Stats | Notes
Area around MA71 (Davna Corp Heliport)
 
Road maps at: MapQuest Bing Google
 
Aerial photo
No photo
 
Sectional chart

 
Airport distance calculator
Flying to Davna Corp Heliport? Find the distance to fly.

From to MA71

Sunrise and sunset
Times for 29-Mar-2020
 Local
(UTC-4)
 Zulu
(UTC)
Morning civil twilight06:0410:04
Sunrise06:3310:33
Sunset19:0823:08
Evening civil twilight19:3623:36

Current date and time
Zulu (UTC)  29-Mar-2020 21:42:47
Local (UTC-4)  29-Mar-2020 17:42:47
 
METAR
KOWD 
10nm E 
292053Z 07007KT 020V100 1 1/2SM -RA BR BKN007 OVC010 06/03 A3003 RMK AO2 RAB20 SLP169 P0002 60004 T00560033 58023
KMQE 
13nm E 
292051Z AUTO 09015G25KT 03/03 A2999 RMK AO1 SLP170 P0002 60005 T00280028 58026
KSFZ 
15nm S 
292056Z AUTO 08007KT 2 1/2SM -RA BR OVC004 06/06 A2997 RMK AO2 VIS 1 3/4V3 SLP098 P0003 60004 T00560056 58026
KBED 
19nm N 
292051Z 09017G23KT 1SM R11/6000VP6000FT -RA BR BKN008 OVC013 04/03 A3003 RMK AO2 SLP183 P0001 60002 T00440033 58024
TAF
KBED 
19nm N 
291913Z 2919/3018 09012KT P6SM -DZ OVC006 FM300600 03006KT 3SM -DZ BR OVC008 FM300900 01005KT 4SM BR OVC008 FM301200 02004KT P6SM OVC008 FM301600 02005KT 3SM BR OVC008
KBOS 
21nm NE 
291913Z 2919/3024 09016KT P6SM SCT010 BKN014 OVC021 FM292000 10014G21KT 3SM -DZ BR OVC008 FM300100 06013G21KT 3SM -SHRA BR OVC008 FM300900 03010G20KT P6SM OVC008 FM301500 02008KT 3SM BR OVC008 FM301900 03010G20KT P6SM OVC008
NOTAMs
Click for the latest NOTAMs
NOTAMs are issued by the DoD/FAA and will open in a separate window not controlled by AirNav.

 

 
 

Would you like to see your business listed on this page?

 If your business provides an interesting product or service to pilots, flight crews, aircraft, or users of the Davna Corp Heliport, you should consider listing it here.  To start the listing process, click on the button below
 
Add a business
 

Other Pages about Davna Corp Heliport

Update a link
 
Copyright © AirNav, LLC. All rights reserved. Privacy Policy  Contact